Seeley, CA

6:31 PM PDT on August 30, 2015 (GMT -0700)
El Centro Naval Air Facility | | Change Station
CLOSE
Current Station
Airport
Location: El Centro,
Elevation: -43 ft
Nearby Weather Stations

Elev -43 ft 32.83 °N, 115.66 °W | Updated 35 minutes ago

Clear
Clear
103 °F
Feels Like 103 °F
N
25
Wind Variable Wind from WSW

Today
High -- | Low -- °F
--% Chance of Precip.
Yesterday
High -- | Low -- °F
Precip. -- in
6:15 AM 7:10 PM
Full, 97% visible
Pressure 29.71 in
Visibility 10.0 miles
Clouds Clear
Dew Point 43 °F
Humidity 13%
Rainfall 0.00 in
Snow Depth Not available.
UV 1 out of 12
Pollen 6.80 out of 12
Air Quality Not available.
Flu Activity Not available.
METAR KNJK 310056Z AUTO 24022KT 10SM CLR 39/06 A2966 RMK AO2 PK WND 24029/0046 SLP060 T03940061 $
Pressure 29.71 in
Visibility 10.0 miles
Clouds Clear
Dew Point 43 °F
Humidity 13%
Rainfall 0.00 in
Snow Depth Not available.
UV 1 out of 12
Pollen 6.80 out of 12
Air Quality Not available.
Flu Activity Not available.
METAR KNJK 310056Z AUTO 24022KT 10SM CLR 39/06 A2966 RMK AO2 PK WND 24029/0046 SLP060 T03940061 $

10-Day Weather Forecast

×

Almanac

Astronomy

Aug. 30, 2015 Rise Set
Actual Time
Civil Twilight
Nautical Twilight
Astronomical Twilight
Moon
Length of Visible Light
Length of Day
Tomorrow will be .
, % of the Moon is Illuminated

Today's Extremes

State Highs State Lows

Community

WunderPhotos

Upload Photos

1,851,145 photos uploaded!

WunderBlogs® & News

Nearby

Air Quality

  Air Quality AQ Index Pollutant
Not available.

Snow Depth

Station Depth Elevation

Earthquake Activity

City Distance Mag. Time & Date
Minimum magnitude displayed is 2.5.

Coastal Water Temperatures

Place Temperature

Stations

Nearby Weather Stations

Station Location Temp. Windchill Dew Point Humidity Wind Precip. Elev Updated Type